Time;durP1;ratioP1;P1;durP2;ratioP2;P2;SDS_P1;SDS_P2;PMS_P1;PMS_P2;Temp;Humidity;BMP_temperature;BMP_pressure;BME280_temperature;BME280_humidity;BME280_pressure;Samples;Min_cycle;Max_cycle;Signal;HPM_P1;HPM_P2
2021/12/25 00:03:03;;;;;;;537.60;491.80;;;6.90;99.90;;;;;;5080540;28;20330;-80
2021/12/25 00:05:29;;;;;;;534.77;489.27;;;6.90;99.90;;;;;;5065084;28;20189;-80
2021/12/25 00:07:55;;;;;;;518.13;474.43;;;6.90;99.90;;;;;;5062073;28;20479;-80
2021/12/25 00:10:20;;;;;;;516.57;473.33;;;6.90;99.90;;;;;;5046572;28;20221;-80
2021/12/25 00:12:47;;;;;;;509.83;467.23;;;6.90;99.90;;;;;;5045552;28;20209;-80
2021/12/25 00:15:13;;;;;;;504.30;462.73;;;7.00;99.90;;;;;;5046286;28;20194;-80
2021/12/25 00:17:39;;;;;;;494.40;453.70;;;7.00;99.90;;;;;;5032658;28;20185;-78
2021/12/25 00:20:05;;;;;;;481.93;442.37;;;6.90;99.90;;;;;;5063110;28;20658;-79
2021/12/25 00:22:31;;;;;;;477.20;438.30;;;6.90;99.90;;;;;;5068196;28;20233;-80
2021/12/25 00:24:56;;;;;;;477.97;439.47;;;6.80;99.90;;;;;;5064724;28;20184;-80
2021/12/25 00:29:55;;;;;;;441.27;406.10;;;6.80;99.90;;;;;;5062900;28;20284;-79
2021/12/25 00:34:47;;;;;;;441.27;405.97;;;6.80;99.90;;;;;;5063192;28;20300;-80
2021/12/25 00:37:13;;;;;;;437.93;403.10;;;6.80;99.90;;;;;;5080936;28;20234;-79
2021/12/25 00:39:40;;;;;;;425.00;391.47;;;6.70;99.90;;;;;;5062654;28;20227;-79
2021/12/25 00:42:06;;;;;;;426.57;393.20;;;6.70;99.90;;;;;;5043838;28;20205;-81
2021/12/25 00:44:33;;;;;;;420.63;388.00;;;6.60;99.90;;;;;;5046019;28;20286;-80
2021/12/25 00:46:59;;;;;;;412.03;380.30;;;6.60;99.90;;;;;;5044991;28;20190;-79
2021/12/25 00:49:26;;;;;;;414.40;382.30;;;6.60;99.90;;;;;;5043649;28;20201;-80
2021/12/25 00:51:52;;;;;;;415.87;383.47;;;6.60;99.90;;;;;;5061778;28;20189;-80
2021/12/25 00:54:18;;;;;;;410.83;379.07;;;6.60;99.90;;;;;;5062002;28;20184;-80
2021/12/25 00:56:45;;;;;;;405.40;373.80;;;6.60;99.90;;;;;;5062125;28;20573;-79
2021/12/25 00:59:10;;;;;;;412.70;380.10;;;6.60;99.90;;;;;;5044832;28;20205;-79
2021/12/25 01:01:36;;;;;;;413.50;380.97;;;6.50;99.90;;;;;;5060644;28;20676;-80
2021/12/25 01:04:03;;;;;;;424.23;390.37;;;6.50;99.90;;;;;;5061058;28;20202;-80
2021/12/25 01:06:28;;;;;;;425.00;391.00;;;6.40;99.90;;;;;;5059801;28;20211;-80
2021/12/25 01:08:54;;;;;;;420.37;387.07;;;6.40;99.90;;;;;;5044861;28;20264;-79
2021/12/25 01:11:20;;;;;;;424.47;391.00;;;6.30;99.90;;;;;;5027843;28;20196;-80
2021/12/25 01:13:53;;;;;;;432.90;398.40;;;6.20;99.90;;;;;;5059148;28;20197;-80
2021/12/25 01:27:50;;;;;;;474.53;434.73;;;6.10;99.90;;;;;;5023853;28;20251;-81
2021/12/25 01:48:50;;;;;;;498.03;454.87;;;5.90;99.90;;;;;;5079983;28;20238;-79
2021/12/25 01:51:16;;;;;;;499.93;457.03;;;5.80;99.90;;;;;;5061748;28;20189;-80
2021/12/25 01:53:42;;;;;;;501.37;458.30;;;5.80;99.90;;;;;;5063635;28;20185;-81
2021/12/25 01:56:08;;;;;;;504.40;461.40;;;5.70;99.90;;;;;;5061995;28;20725;-80
2021/12/25 01:58:34;;;;;;;508.70;465.47;;;5.60;99.90;;;;;;5045136;28;20383;-80
2021/12/25 02:01:00;;;;;;;514.10;469.83;;;5.60;99.90;;;;;;5061344;28;20189;-80
2021/12/25 02:03:33;;;;;;;521.33;476.80;;;5.60;99.90;;;;;;5062776;28;20209;-80
2021/12/25 02:06:00;;;;;;;525.40;480.73;;;5.50;99.90;;;;;;5061995;28;20186;-80
2021/12/25 02:08:26;;;;;;;587.60;536.83;;;5.50;99.90;;;;;;5059640;28;20193;-80
2021/12/25 02:10:52;;;;;;;576.00;526.17;;;5.50;99.90;;;;;;5076386;28;20192;-80
2021/12/25 02:13:18;;;;;;;527.63;483.10;;;5.40;99.90;;;;;;5060345;28;20210;-80
2021/12/25 02:15:48;;;;;;;528.53;483.93;;;5.40;99.90;;;;;;5061915;28;20219;-80
2021/12/25 02:18:25;;;;;;;523.83;479.30;;;5.40;99.90;;;;;;5044072;28;20193;-80
2021/12/25 02:21:01;;;;;;;517.00;473.30;;;5.30;99.90;;;;;;5047859;28;20594;-80
2021/12/25 02:23:30;;;;;;;517.13;473.70;;;5.30;99.90;;;;;;5058525;28;20216;-80
2021/12/25 02:25:57;;;;;;;518.53;474.60;;;5.30;99.90;;;;;;5077168;28;20270;-81
2021/12/25 02:28:25;;;;;;;510.47;467.70;;;5.30;99.90;;;;;;5059911;28;20205;-81
2021/12/25 02:30:53;;;;;;;506.10;463.63;;;5.20;99.90;;;;;;5045264;28;20227;-81
2021/12/25 02:33:19;;;;;;;510.27;468.03;;;5.20;99.90;;;;;;5079565;28;20193;-81
2021/12/25 02:35:45;;;;;;;504.87;463.47;;;5.20;99.90;;;;;;5079754;28;20193;-81
2021/12/25 02:38:11;;;;;;;506.80;466.40;;;5.20;99.90;;;;;;5044600;28;20185;-79
2021/12/25 02:40:37;;;;;;;503.97;463.10;;;5.10;99.90;;;;;;5061025;28;20222;-79
2021/12/25 02:43:03;;;;;;;499.60;459.57;;;5.10;99.90;;;;;;5029579;28;20205;-80
2021/12/25 02:45:29;;;;;;;493.00;452.97;;;5.10;99.90;;;;;;5080936;28;20181;-81
2021/12/25 02:47:56;;;;;;;494.53;454.90;;;5.10;99.90;;;;;;5060863;28;20181;-80
2021/12/25 02:50:31;;;;;;;496.13;456.13;;;5.10;99.90;;;;;;5059266;28;20180;-80
2021/12/25 02:52:59;;;;;;;492.40;453.00;;;5.10;99.90;;;;;;5061492;28;20184;-80
2021/12/25 02:55:26;;;;;;;489.57;450.10;;;5.10;99.90;;;;;;5078417;28;20720;-80
2021/12/25 02:57:52;;;;;;;486.93;447.63;;;5.10;99.90;;;;;;5048251;28;20677;-80
2021/12/25 03:00:47;;;;;;;484.20;445.23;;;5.10;99.90;;;;;;5078505;28;20212;-80
2021/12/25 03:03:14;;;;;;;482.83;444.27;;;5.00;99.90;;;;;;5039854;28;20200;-79
2021/12/25 03:05:39;;;;;;;479.10;440.87;;;5.10;99.90;;;;;;5061765;28;20176;-81
2021/12/25 03:08:06;;;;;;;476.20;438.00;;;5.00;99.90;;;;;;5044265;28;20685;-79
2021/12/25 03:10:35;;;;;;;469.70;431.90;;;5.00;99.90;;;;;;5030281;28;20194;-79
2021/12/25 03:15:46;;;;;;;463.97;426.73;;;5.00;99.90;;;;;;5063880;28;20561;-80
2021/12/25 03:18:18;;;;;;;460.27;423.83;;;5.10;99.90;;;;;;5044981;28;20189;-81
2021/12/25 03:20:46;;;;;;;454.53;418.50;;;5.00;99.90;;;;;;5060077;28;20244;-80
2021/12/25 03:23:18;;;;;;;463.17;426.47;;;4.90;99.90;;;;;;5063681;28;20188;-79
2021/12/25 03:25:46;;;;;;;465.33;428.50;;;4.90;99.90;;;;;;5082143;28;20750;-82
2021/12/25 03:28:14;;;;;;;466.50;429.37;;;4.90;99.90;;;;;;5065107;28;20288;-79
2021/12/25 03:30:40;;;;;;;468.00;430.70;;;4.80;99.90;;;;;;5066321;28;20185;-79
2021/12/25 03:33:07;;;;;;;478.17;440.50;;;4.80;99.90;;;;;;5048011;28;20230;-79
2021/12/25 03:35:34;;;;;;;475.30;437.77;;;4.70;99.90;;;;;;5062356;28;20740;-80
2021/12/25 03:38:01;;;;;;;472.10;434.53;;;4.60;99.90;;;;;;5064681;28;20683;-79
2021/12/25 03:40:27;;;;;;;479.17;441.07;;;4.60;99.90;;;;;;5046560;28;20217;-80
2021/12/25 03:42:53;;;;;;;483.93;445.77;;;4.60;99.90;;;;;;5062513;28;20346;-78
2021/12/25 03:45:19;;;;;;;488.13;449.20;;;4.50;99.90;;;;;;5051745;28;20222;-80
2021/12/25 03:47:47;;;;;;;490.37;451.27;;;4.50;99.90;;;;;;5047860;28;20220;-80
2021/12/25 03:58:29;;;;;;;504.63;464.53;;;4.50;99.90;;;;;;5055837;28;20212;-80
2021/12/25 04:01:01;;;;;;;510.23;469.60;;;4.30;99.90;;;;;;5083166;28;20672;-80
2021/12/25 04:03:41;;;;;;;509.20;468.83;;;4.30;99.90;;;;;;5065213;28;20232;-81
2021/12/25 04:06:09;;;;;;;512.17;471.20;;;4.30;99.90;;;;;;5048018;28;20603;-80
2021/12/25 04:08:41;;;;;;;513.63;472.53;;;4.30;99.90;;;;;;5065370;28;20591;-79
2021/12/25 04:11:25;;;;;;;527.33;484.77;;;4.20;99.90;;;;;;5065271;28;20177;-79
2021/12/25 04:13:51;;;;;;;524.53;482.00;;;4.20;99.90;;;;;;5063088;28;20208;-80
2021/12/25 04:16:17;;;;;;;584.60;535.70;;;4.20;99.90;;;;;;5047475;28;20189;-80
2021/12/25 04:18:42;;;;;;;586.40;537.63;;;4.20;99.90;;;;;;5063656;28;20186;-81
2021/12/25 04:21:08;;;;;;;536.80;492.90;;;4.20;99.90;;;;;;5046786;28;20229;-81
2021/12/25 04:23:37;;;;;;;539.37;495.57;;;4.20;99.90;;;;;;5047818;28;20261;-80
2021/12/25 04:26:03;;;;;;;533.73;490.30;;;4.10;99.90;;;;;;5047700;28;20205;-79
2021/12/25 04:28:41;;;;;;;530.70;487.80;;;4.00;99.90;;;;;;5047445;28;20277;-80
2021/12/25 04:48:09;;;;;;;500.73;460.57;;;3.90;99.90;;;;;;5079699;28;20201;-80
2021/12/25 05:04:30;;;;;;;489.73;450.83;;;3.90;99.90;;;;;;5080593;28;20212;-79
2021/12/25 05:06:56;;;;;;;493.43;454.47;;;3.80;99.90;;;;;;5034025;28;20188;-80
2021/12/25 05:09:22;;;;;;;490.87;452.20;;;3.90;99.90;;;;;;5078010;28;20186;-80
2021/12/25 05:11:47;;;;;;;492.43;454.03;;;3.90;99.90;;;;;;5063092;28;20207;-81
2021/12/25 05:14:13;;;;;;;492.23;453.93;;;3.90;99.90;;;;;;5064297;28;20315;-79
2021/12/25 05:16:39;;;;;;;491.63;453.03;;;3.80;99.90;;;;;;5065789;28;20219;-80
2021/12/25 05:19:04;;;;;;;485.53;447.27;;;3.80;99.90;;;;;;5078681;28;20223;-79
2021/12/25 05:21:30;;;;;;;488.57;449.83;;;3.80;99.90;;;;;;5043521;28;20241;-80
2021/12/25 05:23:58;;;;;;;482.03;444.03;;;3.80;99.90;;;;;;5063353;28;20292;-80
2021/12/25 05:26:24;;;;;;;489.07;450.37;;;3.80;99.90;;;;;;5045398;28;20256;-81
2021/12/25 05:28:58;;;;;;;489.73;451.67;;;3.80;99.90;;;;;;5047936;28;20633;-80
2021/12/25 05:31:25;;;;;;;484.50;446.33;;;3.80;99.90;;;;;;5080658;28;20177;-80
2021/12/25 05:33:50;;;;;;;486.70;448.00;;;3.70;99.90;;;;;;5063049;28;20241;-80
2021/12/25 05:36:16;;;;;;;485.97;447.37;;;3.70;99.90;;;;;;5030547;28;20189;-80
2021/12/25 05:38:42;;;;;;;488.90;450.23;;;3.60;99.90;;;;;;5047450;28;20350;-80
2021/12/25 05:41:08;;;;;;;485.43;446.93;;;3.60;99.90;;;;;;5062484;28;20189;-80
2021/12/25 05:43:33;;;;;;;480.03;442.07;;;3.60;99.90;;;;;;5063139;28;20202;-79
2021/12/25 05:45:59;;;;;;;484.67;446.10;;;3.60;99.90;;;;;;5079490;28;20603;-81
2021/12/25 05:48:25;;;;;;;484.90;446.90;;;3.60;99.90;;;;;;5063261;28;20189;-80
2021/12/25 05:50:50;;;;;;;478.43;441.03;;;3.60;99.90;;;;;;5046358;28;20185;-80
2021/12/25 05:53:16;;;;;;;497.87;458.60;;;3.50;99.90;;;;;;5046530;28;20725;-80
2021/12/25 05:55:42;;;;;;;491.33;452.83;;;3.50;99.90;;;;;;5061706;28;20193;-79
2021/12/25 05:58:09;;;;;;;485.77;448.10;;;3.60;99.90;;;;;;5063638;28;20240;-79
2021/12/25 06:00:37;;;;;;;482.60;445.30;;;3.50;99.90;;;;;;5046555;28;20218;-80
2021/12/25 06:03:04;;;;;;;475.57;438.77;;;3.40;99.90;;;;;;5061929;28;20230;-80
2021/12/25 06:05:30;;;;;;;471.47;434.90;;;3.40;99.90;;;;;;5046975;28;20703;-80
2021/12/25 06:07:55;;;;;;;465.40;430.07;;;3.40;99.90;;;;;;5062912;28;20201;-80
2021/12/25 06:10:21;;;;;;;464.33;429.23;;;3.40;99.90;;;;;;5062601;28;20246;-79
2021/12/25 06:12:48;;;;;;;459.83;424.80;;;3.40;99.90;;;;;;5046294;28;20247;-79
2021/12/25 06:15:18;;;;;;;449.00;416.07;;;3.40;99.90;;;;;;5061602;28;20200;-80
2021/12/25 06:17:44;;;;;;;439.77;407.07;;;3.40;99.90;;;;;;5079029;28;20181;-81
2021/12/25 06:20:10;;;;;;;427.83;396.37;;;3.30;99.90;;;;;;5060635;28;20247;-80
2021/12/25 06:22:36;;;;;;;419.13;388.23;;;3.30;99.90;;;;;;5027644;28;20302;-80
2021/12/25 06:25:04;;;;;;;406.97;377.30;;;3.30;99.90;;;;;;5076782;28;20192;-79
2021/12/25 06:27:30;;;;;;;408.43;378.40;;;3.20;99.90;;;;;;5062378;28;20205;-81
2021/12/25 06:29:56;;;;;;;402.80;373.73;;;3.20;99.90;;;;;;5041843;28;20548;-80
2021/12/25 06:32:21;;;;;;;401.43;373.13;;;3.20;99.90;;;;;;5044684;28;20181;-80
2021/12/25 06:34:47;;;;;;;396.77;368.93;;;3.20;99.90;;;;;;5080358;28;20259;-79
2021/12/25 06:37:13;;;;;;;393.27;365.43;;;3.10;99.90;;;;;;5062442;28;20322;-80
2021/12/25 06:39:41;;;;;;;392.40;364.73;;;3.10;99.90;;;;;;5060073;28;20209;-80
2021/12/25 06:42:08;;;;;;;382.67;355.60;;;3.20;99.90;;;;;;5079420;28;20272;-81
2021/12/25 06:44:34;;;;;;;383.60;357.07;;;3.10;99.90;;;;;;5077690;28;20602;-81
2021/12/25 06:47:00;;;;;;;386.40;359.60;;;3.10;99.90;;;;;;5077864;28;20178;-81
2021/12/25 06:49:26;;;;;;;381.13;354.73;;;3.10;99.90;;;;;;5059894;28;20248;-79
2021/12/25 06:51:52;;;;;;;377.00;351.17;;;3.10;99.90;;;;;;5044631;28;20269;-80
2021/12/25 06:54:18;;;;;;;379.53;353.53;;;3.10;99.90;;;;;;5045542;28;20189;-80
2021/12/25 06:56:45;;;;;;;373.53;348.17;;;3.10;99.90;;;;;;5063351;28;20206;-78
2021/12/25 06:59:11;;;;;;;369.80;344.97;;;3.10;99.90;;;;;;5064841;28;20235;-79
2021/12/25 07:01:37;;;;;;;364.17;339.53;;;3.10;99.90;;;;;;5048282;28;20190;-81
2021/12/25 07:04:07;;;;;;;358.87;335.27;;;3.00;99.90;;;;;;5031055;28;20201;-80
2021/12/25 07:06:33;;;;;;;353.80;331.07;;;3.00;99.90;;;;;;5064533;28;20771;-80
2021/12/25 07:08:59;;;;;;;344.27;322.20;;;3.00;99.90;;;;;;5065250;28;20205;-81
2021/12/25 07:11:24;;;;;;;340.30;318.57;;;2.90;99.90;;;;;;5067541;28;20185;-80
2021/12/25 07:13:51;;;;;;;332.27;311.87;;;2.90;99.90;;;;;;5047563;28;20574;-80
2021/12/25 07:16:17;;;;;;;334.03;313.33;;;2.90;99.90;;;;;;5066917;28;20186;-78
2021/12/25 07:18:43;;;;;;;322.37;302.73;;;2.90;99.90;;;;;;5064794;28;20235;-80
2021/12/25 07:21:09;;;;;;;322.33;302.73;;;2.90;99.90;;;;;;5065285;28;20190;-80
2021/12/25 07:23:34;;;;;;;319.37;299.97;;;2.90;99.90;;;;;;5047626;28;20260;-80
2021/12/25 07:26:00;;;;;;;316.70;297.63;;;2.90;99.90;;;;;;5064890;28;20321;-79
2021/12/25 07:28:28;;;;;;;314.53;295.53;;;2.90;99.90;;;;;;5049738;28;20236;-79
2021/12/25 07:30:56;;;;;;;309.47;291.17;;;2.80;99.90;;;;;;5064089;28;20177;-80
2021/12/25 07:33:22;;;;;;;307.07;288.70;;;2.80;99.90;;;;;;5063776;28;20189;-78
2021/12/25 07:35:48;;;;;;;302.90;285.63;;;2.70;99.90;;;;;;5081101;28;20549;-80
2021/12/25 07:38:15;;;;;;;292.97;276.47;;;2.70;99.90;;;;;;5081830;28;20186;-79
2021/12/25 07:40:41;;;;;;;284.03;268.10;;;2.70;99.90;;;;;;5048746;28;20691;-81
2021/12/25 07:43:06;;;;;;;287.53;271.60;;;2.60;99.90;;;;;;5047876;28;20205;-81
2021/12/25 07:45:32;;;;;;;276.93;261.83;;;2.50;99.90;;;;;;5048243;28;20192;-80
2021/12/25 07:48:01;;;;;;;276.53;261.43;;;2.60;99.90;;;;;;5061899;28;20602;-79
2021/12/25 07:50:30;;;;;;;278.43;263.33;;;2.50;99.90;;;;;;5064208;28;20189;-81
2021/12/25 07:52:56;;;;;;;270.80;256.03;;;2.50;99.90;;;;;;5062098;28;20748;-80
2021/12/25 07:55:22;;;;;;;242.97;230.03;;;2.50;99.90;;;;;;5047158;28;20189;-79
2021/12/25 07:57:48;;;;;;;246.30;233.20;;;2.50;99.90;;;;;;5064311;28;20300;-80
2021/12/25 08:00:15;;;;;;;237.50;225.20;;;2.40;99.90;;;;;;5064197;28;20769;-79
2021/12/25 08:02:44;;;;;;;215.03;203.80;;;2.40;99.90;;;;;;5046167;28;20194;-80
2021/12/25 08:05:10;;;;;;;207.83;196.83;;;2.30;99.90;;;;;;5065770;28;20225;-80
2021/12/25 08:07:36;;;;;;;213.67;202.57;;;2.30;99.90;;;;;;5045462;28;20198;-81
2021/12/25 08:10:13;;;;;;;185.53;176.20;;;2.20;99.90;;;;;;5046820;28;20185;-80
2021/12/25 08:12:48;;;;;;;173.73;164.83;;;2.20;99.90;;;;;;5034344;28;20208;-79
2021/12/25 08:15:16;;;;;;;182.33;172.90;;;2.10;99.90;;;;;;5080741;28;20647;-80
2021/12/25 08:17:42;;;;;;;172.20;163.33;;;2.10;99.90;;;;;;5031725;28;20200;-81
2021/12/25 08:20:08;;;;;;;169.50;160.80;;;2.10;99.90;;;;;;5045751;28;20626;-79
2021/12/25 08:22:35;;;;;;;165.50;157.17;;;2.10;99.90;;;;;;5063050;28;20340;-81
2021/12/25 08:25:01;;;;;;;165.20;156.30;;;2.10;99.90;;;;;;5060990;28;20181;-79
2021/12/25 08:27:27;;;;;;;160.57;152.53;;;2.10;99.90;;;;;;5046026;28;20733;-81
2021/12/25 08:29:53;;;;;;;163.43;155.13;;;2.10;99.90;;;;;;5062864;28;20662;-81
2021/12/25 08:32:19;;;;;;;144.57;137.07;;;2.10;99.90;;;;;;5045307;28;20212;-79
2021/12/25 08:34:45;;;;;;;145.50;138.40;;;2.10;99.90;;;;;;5082750;28;20197;-79
2021/12/25 08:37:11;;;;;;;143.33;136.33;;;2.00;99.90;;;;;;5063802;28;20185;-80
2021/12/25 08:39:37;;;;;;;151.73;144.03;;;1.90;99.90;;;;;;5062284;28;20208;-78
2021/12/25 08:42:05;;;;;;;148.90;141.53;;;1.90;99.90;;;;;;5064447;28;20197;-81
2021/12/25 08:44:41;;;;;;;150.50;142.80;;;1.90;99.90;;;;;;5062185;28;20279;-81
2021/12/25 08:47:10;;;;;;;137.60;130.70;;;1.80;99.90;;;;;;5044538;28;20190;-80
2021/12/25 08:49:38;;;;;;;146.03;138.90;;;1.90;99.90;;;;;;5032318;28;20228;-81
2021/12/25 08:52:11;;;;;;;145.80;138.67;;;1.80;99.90;;;;;;5080937;28;20189;-81
2021/12/25 08:54:38;;;;;;;147.53;140.27;;;1.80;99.90;;;;;;5082472;28;20185;-80
2021/12/25 08:57:05;;;;;;;128.93;122.53;;;1.80;99.90;;;;;;5063139;28;20559;-79
2021/12/25 08:59:31;;;;;;;132.27;125.77;;;1.80;99.90;;;;;;5063008;28;20224;-79
2021/12/25 09:01:57;;;;;;;126.50;120.30;;;1.80;99.90;;;;;;5029743;28;20186;-81
2021/12/25 09:04:22;;;;;;;122.07;116.27;;;1.80;99.90;;;;;;5045984;28;20211;-80
2021/12/25 09:06:48;;;;;;;126.23;120.03;;;1.70;99.90;;;;;;5028054;28;20198;-80
2021/12/25 09:09:14;;;;;;;119.30;113.50;;;1.70;99.90;;;;;;5063623;28;20191;-80
2021/12/25 09:11:41;;;;;;;112.37;106.77;;;1.70;99.90;;;;;;5060147;28;20693;-81
2021/12/25 09:14:07;;;;;;;115.67;110.07;;;1.70;99.90;;;;;;5060665;28;20205;-81
2021/12/25 09:16:33;;;;;;;112.40;106.77;;;1.70;99.90;;;;;;5045070;28;20204;-80
2021/12/25 09:18:59;;;;;;;98.63;93.83;;;1.70;99.90;;;;;;5027703;28;20200;-80
2021/12/25 09:21:25;;;;;;;107.43;102.23;;;1.60;99.90;;;;;;5028325;28;20220;-80
2021/12/25 09:23:50;;;;;;;102.00;97.00;;;1.50;99.90;;;;;;5063742;28;20550;-80
2021/12/25 09:26:17;;;;;;;103.43;98.07;;;1.60;99.90;;;;;;5045975;28;20718;-79
2021/12/25 09:28:44;;;;;;;96.47;91.77;;;1.60;99.90;;;;;;5045227;28;20689;-80
2021/12/25 09:31:10;;;;;;;103.03;97.67;;;1.60;99.90;;;;;;5078050;28;20207;-81
2021/12/25 09:33:35;;;;;;;103.07;97.90;;;1.60;99.90;;;;;;5061876;28;20193;-80
2021/12/25 09:36:02;;;;;;;100.87;95.87;;;1.70;99.90;;;;;;5060642;28;20561;-80
2021/12/25 09:38:29;;;;;;;96.67;91.87;;;1.80;99.90;;;;;;5062478;28;20196;-80
2021/12/25 09:40:56;;;;;;;96.57;91.87;;;1.80;99.90;;;;;;5045435;28;20249;-81
2021/12/25 09:43:22;;;;;;;89.90;85.23;;;1.90;99.90;;;;;;5061347;28;20569;-80
2021/12/25 09:45:48;;;;;;;92.80;88.20;;;1.80;99.90;;;;;;5060865;28;20189;-80
2021/12/25 09:48:14;;;;;;;91.53;86.97;;;1.80;99.90;;;;;;5044130;28;20188;-81
2021/12/25 09:50:40;;;;;;;87.67;83.17;;;1.70;99.90;;;;;;5062168;28;20273;-80
2021/12/25 09:53:11;;;;;;;86.57;82.07;;;1.70;99.90;;;;;;5062223;28;20278;-81
2021/12/25 09:55:38;;;;;;;86.67;82.17;;;1.70;99.90;;;;;;5062345;28;20276;-80
2021/12/25 09:58:04;;;;;;;88.37;83.87;;;1.70;99.90;;;;;;5045970;28;20208;-81
2021/12/25 10:00:30;;;;;;;81.77;77.53;;;1.60;99.90;;;;;;5046857;28;20630;-79
2021/12/25 10:02:57;;;;;;;81.47;77.37;;;1.70;99.90;;;;;;5046042;28;20197;-82
2021/12/25 10:05:37;;;;;;;77.43;73.57;;;1.60;99.90;;;;;;5044308;28;20203;-80
2021/12/25 10:08:12;;;;;;;77.13;73.20;;;1.60;99.90;;;;;;5078758;28;20261;-80
2021/12/25 10:10:44;;;;;;;77.70;73.90;;;1.60;99.90;;;;;;5078863;28;20191;-80
2021/12/25 10:13:35;;;;;;;79.30;75.40;;;1.60;99.90;;;;;;5046202;28;20331;-80
2021/12/25 10:16:27;;;;;;;76.90;73.17;;;1.60;99.90;;;;;;5061517;28;20213;-80
2021/12/25 10:19:10;;;;;;;75.03;71.23;;;1.70;99.90;;;;;;5061835;28;20193;-80
2021/12/25 10:21:36;;;;;;;72.60;68.87;;;1.70;99.90;;;;;;5060781;28;20259;-80
2021/12/25 10:24:09;;;;;;;67.83;64.33;;;1.80;99.90;;;;;;5028661;28;20220;-80
2021/12/25 10:26:38;;;;;;;69.20;65.60;;;1.80;99.90;;;;;;5079907;28;20243;-81
2021/12/25 10:29:23;;;;;;;64.10;60.80;;;1.90;99.90;;;;;;5063819;28;20238;-80
2021/12/25 10:31:51;;;;;;;64.43;60.73;;;1.90;99.90;;;;;;5079900;28;20822;-81
2021/12/25 10:34:21;;;;;;;63.03;59.83;;;1.90;99.90;;;;;;5063177;28;20189;-80
2021/12/25 10:36:47;;;;;;;60.80;57.60;;;2.00;99.90;;;;;;5062004;28;20187;-80
2021/12/25 10:39:18;;;;;;;54.93;52.07;;;2.10;99.90;;;;;;5030075;28;20992;-80
2021/12/25 10:41:54;;;;;;;51.63;49.03;;;2.20;99.90;;;;;;5080464;28;20205;-80
2021/12/25 10:44:29;;;;;;;51.53;48.80;;;2.20;99.90;;;;;;5061189;28;20296;-81
2021/12/25 10:47:00;;;;;;;54.03;51.23;;;2.20;99.90;;;;;;5080972;28;20197;-81
2021/12/25 10:49:35;;;;;;;54.80;51.80;;;2.20;99.90;;;;;;5077756;28;20184;-81
2021/12/25 10:52:20;;;;;;;57.43;54.43;;;2.10;99.90;;;;;;5061317;28;20324;-81
2021/12/25 10:55:00;;;;;;;55.33;52.37;;;2.10;99.90;;;;;;5079247;28;20196;-80
2021/12/25 10:57:43;;;;;;;55.10;51.90;;;2.10;99.90;;;;;;5061716;28;20220;-81
2021/12/25 11:00:25;;;;;;;50.20;47.60;;;2.00;99.90;;;;;;5061868;28;20398;-81
2021/12/25 11:02:59;;;;;;;51.97;49.07;;;1.90;99.90;;;;;;5061740;28;20185;-80
2021/12/25 11:05:29;;;;;;;52.10;49.40;;;1.80;99.90;;;;;;5078221;28;20185;-79
2021/12/25 11:08:02;;;;;;;49.70;47.20;;;1.80;99.90;;;;;;5077354;28;20662;-81
2021/12/25 11:10:30;;;;;;;51.67;48.90;;;1.80;99.90;;;;;;5061263;28;20204;-81
2021/12/25 11:12:56;;;;;;;51.57;48.97;;;1.80;99.90;;;;;;5044960;28;20623;-79
2021/12/25 11:15:26;;;;;;;52.40;49.50;;;1.70;99.90;;;;;;5027104;28;20196;-80
2021/12/25 11:17:54;;;;;;;49.17;46.47;;;1.60;99.90;;;;;;5060620;28;20192;-80
2021/12/25 11:20:34;;;;;;;49.43;46.93;;;1.60;99.90;;;;;;5045255;28;20205;-79
2021/12/25 11:23:03;;;;;;;46.83;44.43;;;1.60;99.90;;;;;;5057821;28;20236;-81
2021/12/25 11:25:30;;;;;;;46.87;44.57;;;1.60;99.90;;;;;;5058909;28;20225;-80
2021/12/25 11:27:58;;;;;;;43.17;40.97;;;1.60;99.90;;;;;;5059748;28;20202;-82
2021/12/25 11:30:27;;;;;;;42.97;40.77;;;1.60;99.90;;;;;;5025411;28;20498;-82
2021/12/25 11:32:53;;;;;;;41.57;39.47;;;1.60;99.90;;;;;;5056642;28;20181;-81
2021/12/25 11:35:20;;;;;;;41.13;38.83;;;1.60;99.90;;;;;;5056772;28;20663;-81
2021/12/25 11:37:49;;;;;;;43.43;41.20;;;1.60;99.90;;;;;;5040287;28;20203;-80
2021/12/25 11:40:16;;;;;;;44.30;41.80;;;1.70;99.90;;;;;;5057999;28;20648;-81
2021/12/25 11:42:48;;;;;;;40.60;38.60;;;1.80;99.90;;;;;;5056130;28;20190;-81
2021/12/25 11:45:23;;;;;;;36.13;34.33;;;1.80;99.90;;;;;;5060719;28;20185;-81
2021/12/25 11:47:55;;;;;;;36.70;34.90;;;1.90;99.90;;;;;;5043813;28;20197;-81
2021/12/25 11:50:45;;;;;;;36.00;34.00;;;1.80;99.90;;;;;;5060963;28;20587;-81
2021/12/25 11:53:27;;;;;;;35.97;34.17;;;1.90;99.90;;;;;;5061144;28;20193;-81
2021/12/25 11:58:45;;;;;;;34.73;32.63;;;1.90;99.90;;;;;;5063136;28;20200;-81
2021/12/25 12:01:32;;;;;;;33.73;32.03;;;1.80;99.90;;;;;;5063597;28;20213;-80
2021/12/25 12:04:01;;;;;;;32.73;31.13;;;1.80;99.90;;;;;;5045026;28;20584;-80
2021/12/25 12:06:58;;;;;;;32.77;31.07;;;1.70;99.90;;;;;;5061037;28;20630;-79
2021/12/25 12:09:52;;;;;;;34.50;32.70;;;1.60;99.90;;;;;;5060584;28;20178;-80
2021/12/25 12:12:29;;;;;;;33.20;31.20;;;1.60;99.90;;;;;;5062072;28;20585;-81
2021/12/25 12:15:13;;;;;;;32.67;31.07;;;1.50;99.90;;;;;;5061972;28;20554;-81
2021/12/25 12:17:39;;;;;;;31.70;30.10;;;1.50;99.90;;;;;;5061950;28;20281;-82
2021/12/25 12:20:06;;;;;;;32.40;30.80;;;1.40;99.90;;;;;;5043093;28;20235;-81
2021/12/25 12:22:47;;;;;;;33.17;31.27;;;1.40;99.90;;;;;;5043879;28;20260;-81
2021/12/25 12:25:24;;;;;;;32.20;30.53;;;1.40;99.90;;;;;;5061142;28;20655;-79
2021/12/25 12:28:02;;;;;;;31.60;29.37;;;1.40;99.90;;;;;;5061416;28;20186;-81
2021/12/25 12:30:30;;;;;;;30.77;28.80;;;1.40;99.90;;;;;;5062834;28;20276;-80
2021/12/25 12:33:19;;;;;;;28.50;27.00;;;1.30;99.90;;;;;;5059757;28;20206;-81
2021/12/25 12:35:47;;;;;;;28.13;26.70;;;1.30;99.90;;;;;;5045151;28;20255;-81
2021/12/25 12:38:28;;;;;;;29.27;27.43;;;1.30;99.90;;;;;;5043335;28;20193;-81
2021/12/25 12:41:12;;;;;;;29.00;27.50;;;1.30;99.90;;;;;;5058193;28;20292;-81
2021/12/25 12:44:14;;;;;;;27.80;26.27;;;1.40;99.90;;;;;;5044569;28;20663;-81
2021/12/25 12:46:52;;;;;;;27.23;25.73;;;1.40;99.90;;;;;;5061871;28;20189;-81
2021/12/25 12:49:53;;;;;;;26.00;24.50;;;1.40;99.90;;;;;;5058696;28;20213;-81
2021/12/25 12:52:45;;;;;;;26.37;24.97;;;1.40;99.90;;;;;;5060104;28;20193;-81
2021/12/25 12:55:29;;;;;;;25.23;24.03;;;1.40;99.90;;;;;;5054779;28;20201;-81
2021/12/25 12:58:17;;;;;;;24.83;23.47;;;1.40;99.90;;;;;;5061374;28;20264;-80
2021/12/25 13:00:46;;;;;;;24.90;23.50;;;1.40;99.90;;;;;;5061073;28;20205;-80
2021/12/25 13:03:12;;;;;;;24.37;23.13;;;1.40;99.90;;;;;;5061877;28;20213;-79
2021/12/25 13:05:47;;;;;;;23.00;21.67;;;1.50;99.90;;;;;;5043368;28;20194;-81
2021/12/25 13:08:18;;;;;;;21.93;20.50;;;1.40;99.90;;;;;;5042984;28;20646;-81
2021/12/25 13:10:51;;;;;;;20.60;19.30;;;1.50;99.90;;;;;;5043802;28;20197;-79
2021/12/25 13:13:29;;;;;;;18.43;17.53;;;1.50;99.90;;;;;;5062266;28;20275;-81
2021/12/25 13:16:01;;;;;;;16.50;15.60;;;1.60;99.90;;;;;;5059512;28;20263;-80
2021/12/25 13:18:29;;;;;;;16.10;15.30;;;1.60;99.90;;;;;;5061452;28;20197;-80
2021/12/25 13:20:56;;;;;;;16.37;15.47;;;1.60;99.90;;;;;;5057810;28;20213;-81
2021/12/25 13:23:24;;;;;;;16.67;15.67;;;1.50;99.90;;;;;;5041296;28;20579;-82
2021/12/25 13:25:59;;;;;;;17.53;16.40;;;1.50;99.90;;;;;;5058743;28;20749;-80
2021/12/25 13:28:30;;;;;;;17.50;16.43;;;1.50;99.90;;;;;;5056621;28;20295;-81
2021/12/25 13:31:03;;;;;;;16.93;15.83;;;1.60;99.90;;;;;;5059625;28;20201;-80
2021/12/25 13:33:34;;;;;;;16.80;15.90;;;1.60;99.90;;;;;;5062042;28;20197;-80
2021/12/25 13:36:12;;;;;;;16.00;15.20;;;1.60;99.90;;;;;;5058724;28;20189;-81
2021/12/25 13:38:57;;;;;;;15.97;15.17;;;1.60;99.90;;;;;;5058644;28;20178;-81
2021/12/25 13:41:45;;;;;;;16.23;15.23;;;1.60;99.90;;;;;;5041096;28;20193;-81
2021/12/25 13:44:15;;;;;;;15.87;14.93;;;1.60;99.90;;;;;;5058797;28;20220;-81
2021/12/25 13:46:49;;;;;;;16.20;15.30;;;1.60;99.90;;;;;;5057134;28;20262;-81
2021/12/25 13:49:35;;;;;;;15.77;14.87;;;1.60;99.90;;;;;;5058382;28;20211;-80
2021/12/25 13:52:33;;;;;;;15.00;14.20;;;1.60;99.90;;;;;;5058661;28;20186;-83
2021/12/25 13:55:13;;;;;;;16.10;15.20;;;1.60;99.90;;;;;;5061190;28;20182;-78
2021/12/25 13:57:42;;;;;;;16.00;15.20;;;1.60;99.90;;;;;;5060409;28;20221;-79